createdAt,value
2019-02-25T00:00:20.401Z,4.90
2019-02-25T00:02:49.685Z,5.00
2019-02-25T00:05:18.998Z,5.00
2019-02-25T00:07:48.336Z,5.00
2019-02-25T00:10:17.611Z,5.00
2019-02-25T00:12:46.964Z,5.00
2019-02-25T00:15:16.268Z,5.00
2019-02-25T00:17:45.548Z,5.00
2019-02-25T00:20:14.891Z,5.00
2019-02-25T00:22:44.178Z,5.10
2019-02-25T00:25:13.559Z,5.10
2019-02-25T00:27:42.874Z,5.10
2019-02-25T00:30:12.470Z,5.10
2019-02-25T00:32:41.736Z,5.10
2019-02-25T00:35:11.565Z,5.00
2019-02-25T00:37:40.892Z,5.00
2019-02-25T00:40:10.405Z,5.00
2019-02-25T00:42:39.702Z,5.00
2019-02-25T00:45:09.136Z,5.00
2019-02-25T00:47:38.436Z,5.00
2019-02-25T00:50:09.935Z,5.00
2019-02-25T00:52:39.243Z,5.00
2019-02-25T00:55:08.776Z,5.00
2019-02-25T00:57:38.457Z,5.00
2019-02-25T01:00:11.222Z,5.00
2019-02-25T01:02:40.592Z,5.00
2019-02-25T01:05:09.937Z,4.90
2019-02-25T01:07:39.332Z,4.80
2019-02-25T01:10:09.661Z,4.60
2019-02-25T01:12:39.324Z,4.40
2019-02-25T01:15:09.348Z,4.30
2019-02-25T01:17:38.969Z,4.30
2019-02-25T01:20:08.408Z,4.30
2019-02-25T01:22:37.686Z,4.40
2019-02-25T01:25:09.081Z,4.40
2019-02-25T01:27:38.355Z,4.40
2019-02-25T01:30:10.439Z,4.40
2019-02-25T01:32:39.729Z,4.40
2019-02-25T01:35:10.895Z,4.40
2019-02-25T01:37:40.177Z,4.40
2019-02-25T01:40:10.512Z,4.40
2019-02-25T01:42:39.798Z,4.50
2019-02-25T01:45:10.860Z,4.50
2019-02-25T01:47:40.499Z,4.40
2019-02-25T01:50:10.320Z,4.40
2019-02-25T01:52:39.624Z,4.40
2019-02-25T01:55:09.538Z,4.40
2019-02-25T01:57:38.807Z,4.50
2019-02-25T02:00:11.469Z,4.40
2019-02-25T02:02:41.171Z,4.40
2019-02-25T02:05:10.573Z,4.40
2019-02-25T02:07:39.922Z,4.50
2019-02-25T02:10:11.065Z,4.40
2019-02-25T02:12:40.344Z,4.40
2019-02-25T02:15:12.916Z,4.30
2019-02-25T02:17:42.867Z,4.20
2019-02-25T02:20:13.605Z,4.20
2019-02-25T02:22:43.289Z,4.10
2019-02-25T02:25:12.791Z,4.10
2019-02-25T02:27:42.096Z,4.10
2019-02-25T02:30:14.630Z,4.10
2019-02-25T02:32:44.415Z,4.10
2019-02-25T02:35:13.801Z,4.00
2019-02-25T02:37:43.099Z,3.90
2019-02-25T02:40:12.905Z,4.10
2019-02-25T02:42:44.238Z,4.10
2019-02-25T02:46:19.547Z,4.00
2019-02-25T02:48:52.774Z,3.90
2019-02-25T02:51:22.050Z,3.80
2019-02-25T02:53:51.364Z,3.80
2019-02-25T02:56:20.677Z,3.80
2019-02-25T02:58:50.037Z,3.80
2019-02-25T03:01:19.322Z,3.70
2019-02-25T03:03:48.620Z,3.60
2019-02-25T03:06:17.934Z,3.50
2019-02-25T03:08:47.769Z,3.40
2019-02-25T03:11:17.073Z,3.40
2019-02-25T03:13:46.354Z,3.40
2019-02-25T03:16:15.765Z,3.30
2019-02-25T03:18:45.077Z,3.40
2019-02-25T03:21:14.349Z,3.40
2019-02-25T03:23:43.682Z,3.30
2019-02-25T03:26:12.983Z,3.30
2019-02-25T03:28:42.268Z,3.30
2019-02-25T03:31:11.591Z,3.20
2019-02-25T03:33:40.913Z,3.20
2019-02-25T03:36:10.705Z,3.10
2019-02-25T03:38:40.005Z,3.20
2019-02-25T03:41:09.421Z,3.20
2019-02-25T03:43:38.695Z,3.00
2019-02-25T03:46:08.284Z,2.80
2019-02-25T03:48:37.737Z,2.80
2019-02-25T03:51:07.993Z,2.70
2019-02-25T03:53:37.408Z,2.80
2019-02-25T03:56:06.738Z,2.80
2019-02-25T03:58:36.060Z,2.80
2019-02-25T04:01:05.356Z,2.90
2019-02-25T04:03:34.601Z,3.00
2019-02-25T04:06:03.943Z,2.90
2019-02-25T04:08:33.219Z,2.90
2019-02-25T04:11:02.537Z,2.90
2019-02-25T04:13:31.866Z,2.90
2019-02-25T04:16:01.689Z,2.90
2019-02-25T04:18:31.039Z,2.90
2019-02-25T04:21:00.712Z,3.00
2019-02-25T04:23:30.032Z,2.90
2019-02-25T04:25:59.324Z,2.90
2019-02-25T04:28:28.664Z,2.90
2019-02-25T04:30:57.957Z,3.00
2019-02-25T04:33:27.260Z,3.10
2019-02-25T04:35:56.585Z,3.10
2019-02-25T04:38:25.864Z,3.10
2019-02-25T04:40:55.190Z,2.90
2019-02-25T04:43:24.925Z,2.90
2019-02-25T04:45:54.205Z,2.90
2019-02-25T04:48:23.525Z,2.70
2019-02-25T04:50:52.828Z,2.70
2019-02-25T04:53:22.584Z,2.70
2019-02-25T04:55:51.949Z,2.60
2019-02-25T04:58:21.224Z,2.70
2019-02-25T05:00:50.528Z,2.70
2019-02-25T05:03:19.837Z,2.80
2019-02-25T05:05:49.117Z,2.80
2019-02-25T05:08:18.392Z,2.80
2019-02-25T05:10:47.727Z,2.70
2019-02-25T05:13:17.028Z,2.70
2019-02-25T05:15:46.303Z,2.60
2019-02-25T05:18:15.615Z,2.60
2019-02-25T05:20:44.985Z,2.60
2019-02-25T05:23:14.663Z,2.60
2019-02-25T05:25:43.981Z,2.60
2019-02-25T05:28:13.265Z,2.60
2019-02-25T05:30:42.649Z,2.60
2019-02-25T05:33:12.021Z,2.60
2019-02-25T05:35:41.438Z,2.60
2019-02-25T05:38:10.734Z,2.60
2019-02-25T05:40:41.133Z,2.60
2019-02-25T05:43:10.426Z,2.60
2019-02-25T05:45:39.721Z,2.60
2019-02-25T05:48:09.457Z,2.50
2019-02-25T05:50:38.757Z,2.60
2019-02-25T05:53:08.065Z,2.60
2019-02-25T05:55:37.392Z,2.50
2019-02-25T05:58:06.676Z,2.60
2019-02-25T06:00:36.524Z,2.60
2019-02-25T06:03:06.168Z,2.70
2019-02-25T06:05:35.485Z,2.60
2019-02-25T06:08:04.848Z,2.60
2019-02-25T06:10:34.424Z,2.50
2019-02-25T06:13:03.705Z,2.50
2019-02-25T06:15:33.032Z,2.50
2019-02-25T06:18:02.327Z,2.50
2019-02-25T06:20:31.694Z,2.50
2019-02-25T06:23:00.971Z,2.50
2019-02-25T06:25:30.581Z,2.50
2019-02-25T06:27:59.941Z,2.50
2019-02-25T06:30:29.252Z,2.50
2019-02-25T06:32:58.561Z,2.50
2019-02-25T06:35:27.865Z,2.50
2019-02-25T06:37:57.162Z,2.50
2019-02-25T06:40:26.441Z,2.50
2019-02-25T06:42:55.743Z,2.50
2019-02-25T06:45:25.517Z,2.50
2019-02-25T06:47:55.211Z,2.60
2019-02-25T06:50:24.489Z,2.70
2019-02-25T06:52:53.897Z,2.80
2019-02-25T06:55:23.635Z,2.80
2019-02-25T06:57:52.942Z,2.80
2019-02-25T07:00:22.625Z,2.90
2019-02-25T07:02:52.010Z,2.90
2019-02-25T07:05:26.477Z,2.90
2019-02-25T07:07:58.504Z,3.00
2019-02-25T07:11:01.849Z,3.00
2019-02-25T07:13:48.974Z,3.00
2019-02-25T07:16:24.506Z,3.00
2019-02-25T07:19:11.432Z,3.00
2019-02-25T07:21:58.602Z,3.10
2019-02-25T07:24:52.442Z,3.20
2019-02-25T07:27:49.086Z,3.30
2019-02-25T07:30:23.605Z,3.30
2019-02-25T07:33:11.163Z,3.40
2019-02-25T07:35:49.014Z,3.40
2019-02-25T07:38:39.425Z,3.50
2019-02-25T07:41:33.488Z,3.60
2019-02-25T07:44:27.708Z,3.70
2019-02-25T07:47:24.990Z,3.80
2019-02-25T07:50:16.032Z,3.90
2019-02-25T07:53:04.271Z,4.00
2019-02-25T07:56:07.671Z,4.10
2019-02-25T07:59:01.766Z,4.20
2019-02-25T08:01:43.452Z,4.30
2019-02-25T08:04:27.543Z,4.50
2019-02-25T08:07:04.375Z,4.60
2019-02-25T08:09:55.637Z,4.60
2019-02-25T08:12:36.158Z,4.80
2019-02-25T08:15:33.964Z,4.90
2019-02-25T08:18:14.797Z,5.00
2019-02-25T08:20:53.136Z,5.10
2019-02-25T08:23:39.890Z,5.30
2019-02-25T08:26:22.453Z,5.60
2019-02-25T08:29:01.468Z,5.80
2019-02-25T08:31:49.734Z,6.10
2019-02-25T08:34:47.320Z,6.30
2019-02-25T08:38:01.432Z,6.40
2019-02-25T08:40:49.100Z,6.50
2019-02-25T08:43:40.428Z,6.60
2019-02-25T08:46:28.664Z,6.90
2019-02-25T08:49:22.826Z,7.00
2019-02-25T08:51:52.168Z,7.20
2019-02-25T08:54:21.757Z,7.30
2019-02-25T08:56:51.065Z,7.50
2019-02-25T08:59:20.352Z,7.50
2019-02-25T09:01:49.655Z,7.70
2019-02-25T09:04:18.949Z,7.80
2019-02-25T09:06:48.329Z,7.90
2019-02-25T09:09:17.615Z,8.00
2019-02-25T09:11:46.912Z,8.30
2019-02-25T09:14:16.192Z,8.40
2019-02-25T09:16:45.496Z,8.60
2019-02-25T09:19:15.170Z,8.70
2019-02-25T09:21:45.413Z,8.90
2019-02-25T09:24:14.817Z,9.10
2019-02-25T09:26:44.121Z,9.30
2019-02-25T09:29:13.838Z,9.40
2019-02-25T09:31:43.208Z,9.50
2019-02-25T09:34:12.883Z,9.70
2019-02-25T09:36:42.220Z,9.80
2019-02-25T09:39:12.968Z,10.10
2019-02-25T09:41:42.260Z,10.30
2019-02-25T09:44:11.940Z,10.50
2019-02-25T09:46:41.236Z,10.90
2019-02-25T09:49:10.546Z,11.10
2019-02-25T09:51:39.889Z,11.20
2019-02-25T09:54:09.178Z,11.30
2019-02-25T09:56:38.505Z,11.40
2019-02-25T09:59:07.809Z,11.50
2019-02-25T10:01:37.132Z,11.70
2019-02-25T10:04:06.451Z,11.90
2019-02-25T10:06:36.035Z,12.20
2019-02-25T10:09:07.573Z,12.30
2019-02-25T10:11:36.886Z,12.40
2019-02-25T10:14:06.324Z,12.60
2019-02-25T10:16:35.621Z,12.70
2019-02-25T10:19:04.917Z,12.70
2019-02-25T10:21:34.307Z,12.70
2019-02-25T10:24:03.652Z,12.70
2019-02-25T10:26:33.022Z,12.60
2019-02-25T10:29:02.361Z,12.50
2019-02-25T10:31:31.696Z,12.50
2019-02-25T10:34:01.306Z,12.70
2019-02-25T10:36:30.632Z,12.70
2019-02-25T10:38:59.933Z,12.80
2019-02-25T10:41:29.235Z,12.80
2019-02-25T10:44:00.247Z,12.80
2019-02-25T10:46:29.597Z,12.90
2019-02-25T10:49:04.954Z,12.90
2019-02-25T10:51:30.408Z,13.00
2019-02-25T10:53:59.689Z,13.00
2019-02-25T10:56:37.083Z,13.10
2019-02-25T10:59:08.114Z,13.00
2019-02-25T11:01:39.162Z,13.00
2019-02-25T11:04:08.689Z,13.00
2019-02-25T11:06:38.003Z,12.80
2019-02-25T11:09:27.569Z,12.60
2019-02-25T11:11:59.579Z,12.50
2019-02-25T11:14:28.405Z,12.50
2019-02-25T11:16:57.692Z,12.50
2019-02-25T11:19:28.527Z,12.50
2019-02-25T11:21:58.068Z,12.60
2019-02-25T11:24:27.450Z,12.70
2019-02-25T11:26:57.331Z,12.70
2019-02-25T11:29:27.722Z,12.80
2019-02-25T11:31:57.090Z,12.80
2019-02-25T11:34:26.370Z,12.90
2019-02-25T11:36:57.175Z,12.90
2019-02-25T11:39:27.476Z,13.20
2019-02-25T11:41:57.821Z,13.20
2019-02-25T11:44:31.037Z,13.20
2019-02-25T11:46:58.275Z,13.20
2019-02-25T11:49:27.624Z,13.30
2019-02-25T11:51:56.943Z,13.30
2019-02-25T11:54:26.395Z,13.30
2019-02-25T11:56:55.761Z,13.40
2019-02-25T11:59:25.084Z,13.40
2019-02-25T12:01:54.444Z,13.50
2019-02-25T12:04:23.823Z,13.60
2019-02-25T12:06:53.134Z,13.60
2019-02-25T12:09:22.434Z,13.70
2019-02-25T12:11:51.763Z,13.70
2019-02-25T12:14:21.092Z,13.70
2019-02-25T12:16:52.736Z,13.80
2019-02-25T12:19:22.094Z,13.90
2019-02-25T12:21:51.375Z,14.00
2019-02-25T12:24:20.718Z,14.00
2019-02-25T12:26:50.021Z,14.10
2019-02-25T12:29:19.252Z,14.20
2019-02-25T12:31:48.645Z,14.20
2019-02-25T12:34:17.976Z,14.30
2019-02-25T12:36:47.360Z,14.30
2019-02-25T12:39:16.691Z,14.40
2019-02-25T12:41:46.344Z,14.40
2019-02-25T12:44:15.936Z,14.50
2019-02-25T12:46:45.261Z,14.50
2019-02-25T12:49:14.555Z,14.60
2019-02-25T12:51:44.212Z,14.80
2019-02-25T12:54:13.897Z,14.70
2019-02-25T12:56:43.204Z,14.60
2019-02-25T12:59:12.492Z,14.60
2019-02-25T13:01:41.824Z,14.60
2019-02-25T13:04:11.221Z,14.80
2019-02-25T13:06:40.522Z,14.90
2019-02-25T13:09:15.008Z,14.90
2019-02-25T13:11:44.432Z,15.00
2019-02-25T13:14:13.776Z,14.90
2019-02-25T13:16:43.144Z,15.00
2019-02-25T13:19:12.598Z,15.10
2019-02-25T13:21:41.929Z,15.20
2019-02-25T13:24:12.044Z,15.20
2019-02-25T13:26:41.392Z,15.10
2019-02-25T13:29:10.697Z,15.10
2019-02-25T13:31:40.167Z,15.20
2019-02-25T13:34:09.529Z,15.20
2019-02-25T13:36:38.947Z,15.20
2019-02-25T13:39:08.797Z,15.30
2019-02-25T13:41:38.160Z,15.30
2019-02-25T13:44:07.537Z,15.30
2019-02-25T13:46:36.968Z,15.50
2019-02-25T13:49:06.676Z,15.40
2019-02-25T13:51:36.060Z,15.40
2019-02-25T13:54:05.429Z,15.50
2019-02-25T13:56:34.805Z,15.60
2019-02-25T13:59:04.288Z,15.60
2019-02-25T14:01:34.184Z,15.70
2019-02-25T14:04:03.692Z,15.70
2019-02-25T14:06:33.137Z,15.80
2019-02-25T14:09:02.533Z,15.90
2019-02-25T14:11:32.211Z,15.90
2019-02-25T14:14:01.599Z,15.80
2019-02-25T14:16:31.147Z,15.70
2019-02-25T14:19:00.461Z,15.70
2019-02-25T14:21:31.656Z,15.70
2019-02-25T14:24:00.965Z,15.80
2019-02-25T14:26:30.516Z,15.80
2019-02-25T14:28:59.905Z,15.80
2019-02-25T14:31:29.925Z,15.70
2019-02-25T14:33:59.861Z,15.90
2019-02-25T14:36:29.261Z,15.80
2019-02-25T14:38:59.408Z,16.00
2019-02-25T14:41:29.661Z,16.10
2019-02-25T14:43:59.144Z,16.10
2019-02-25T14:46:28.510Z,16.00
2019-02-25T14:48:57.888Z,16.10
2019-02-25T14:51:27.249Z,16.10
2019-02-25T14:53:56.633Z,16.10
2019-02-25T14:56:25.995Z,16.20
2019-02-25T14:58:55.897Z,16.40
2019-02-25T15:01:27.036Z,16.30
2019-02-25T15:03:58.056Z,16.20
2019-02-25T15:06:28.213Z,16.10
2019-02-25T15:08:59.585Z,16.10
2019-02-25T15:11:29.530Z,16.00
2019-02-25T15:13:59.472Z,16.00
2019-02-25T15:16:29.082Z,16.00
2019-02-25T15:18:58.598Z,15.90
2019-02-25T15:21:29.508Z,15.90
2019-02-25T15:24:00.518Z,15.90
2019-02-25T15:26:30.359Z,16.00
2019-02-25T15:29:00.714Z,15.90
2019-02-25T15:31:31.050Z,16.00
2019-02-25T15:34:00.418Z,16.10
2019-02-25T15:36:29.795Z,16.10
2019-02-25T15:38:59.181Z,16.00
2019-02-25T15:41:28.601Z,16.00
2019-02-25T15:43:59.878Z,15.90
2019-02-25T15:46:29.028Z,15.90
2019-02-25T15:48:58.399Z,15.90
2019-02-25T15:51:28.434Z,15.90
2019-02-25T15:53:59.830Z,15.90
2019-02-25T15:56:29.305Z,15.90
2019-02-25T15:58:58.669Z,15.80
2019-02-25T16:01:28.383Z,15.80
2019-02-25T16:04:02.276Z,15.70
2019-02-25T16:06:30.996Z,15.70
2019-02-25T16:09:00.873Z,15.50
2019-02-25T16:11:31.574Z,15.50
2019-02-25T16:14:02.462Z,15.40
2019-02-25T16:16:32.029Z,15.30
2019-02-25T16:19:01.507Z,15.20
2019-02-25T16:21:31.502Z,15.10
2019-02-25T16:24:02.042Z,15.10
2019-02-25T16:26:34.080Z,15.00
2019-02-25T16:29:05.937Z,15.00
2019-02-25T16:31:35.905Z,14.90
2019-02-25T16:34:05.580Z,14.90
2019-02-25T16:36:34.976Z,14.90
2019-02-25T16:39:07.245Z,14.80
2019-02-25T16:41:36.656Z,14.80
2019-02-25T16:44:08.960Z,14.70
2019-02-25T16:46:40.776Z,14.60
2019-02-25T16:49:09.293Z,14.50
2019-02-25T16:51:38.964Z,14.40
2019-02-25T16:54:11.065Z,14.40
2019-02-25T16:56:39.541Z,14.20
2019-02-25T16:59:11.165Z,14.10
2019-02-25T17:01:41.557Z,14.00
2019-02-25T17:04:12.232Z,13.80
2019-02-25T17:06:42.605Z,13.70
2019-02-25T17:09:18.171Z,13.60
2019-02-25T17:11:47.968Z,13.60
2019-02-25T17:14:19.031Z,13.60
2019-02-25T17:16:48.399Z,13.50
2019-02-25T17:19:19.656Z,13.50
2019-02-25T17:21:50.028Z,13.40
2019-02-25T17:24:23.795Z,13.40
2019-02-25T17:26:50.450Z,13.30
2019-02-25T17:29:19.864Z,13.20
2019-02-25T17:31:49.152Z,13.10
2019-02-25T17:34:19.194Z,12.90
2019-02-25T17:36:50.095Z,12.80
2019-02-25T17:39:20.978Z,12.70
2019-02-25T17:41:50.368Z,12.60
2019-02-25T17:44:20.619Z,12.50
2019-02-25T17:46:51.277Z,12.40
2019-02-25T17:49:20.804Z,12.20
2019-02-25T17:51:51.288Z,12.00
2019-02-25T17:54:21.261Z,11.90
2019-02-25T17:56:51.870Z,11.80
2019-02-25T17:59:22.977Z,11.70
2019-02-25T18:01:52.713Z,11.60
2019-02-25T18:04:24.368Z,11.50
2019-02-25T18:06:53.489Z,11.40
2019-02-25T18:09:24.669Z,11.20
2019-02-25T18:11:53.886Z,11.10
2019-02-25T18:14:23.297Z,11.10
2019-02-25T18:16:52.721Z,11.00
2019-02-25T18:19:24.438Z,11.00
2019-02-25T18:21:54.041Z,10.80
2019-02-25T18:24:26.999Z,10.80
2019-02-25T18:26:54.903Z,10.70
2019-02-25T18:29:24.837Z,10.60
2019-02-25T18:31:54.716Z,10.60
2019-02-25T18:34:24.096Z,10.50
2019-02-25T18:36:55.403Z,10.50
2019-02-25T18:39:25.282Z,10.40
2019-02-25T18:41:56.982Z,10.20
2019-02-25T18:44:26.900Z,10.10
2019-02-25T18:46:56.300Z,10.00
2019-02-25T18:49:26.664Z,10.00
2019-02-25T18:51:57.109Z,9.90
2019-02-25T18:54:26.476Z,9.80
2019-02-25T18:56:57.012Z,9.70
2019-02-25T18:59:26.912Z,9.70
2019-02-25T19:01:56.279Z,9.60
2019-02-25T19:04:26.220Z,9.50
2019-02-25T19:06:56.498Z,9.50
2019-02-25T19:09:27.693Z,9.40
2019-02-25T19:11:58.548Z,9.30
2019-02-25T19:14:29.369Z,9.20
2019-02-25T19:17:00.324Z,9.10
2019-02-25T19:19:31.425Z,9.10
2019-02-25T19:22:03.173Z,9.00
2019-02-25T19:24:36.245Z,8.90
2019-02-25T19:27:08.691Z,8.90
2019-02-25T19:29:39.327Z,8.80
2019-02-25T19:32:10.265Z,8.70
2019-02-25T19:34:44.162Z,8.70
2019-02-25T19:37:14.494Z,8.60
2019-02-25T19:39:46.228Z,8.60
2019-02-25T19:42:17.745Z,8.50
2019-02-25T19:44:46.296Z,8.40
2019-02-25T19:47:16.868Z,8.40
2019-02-25T19:49:46.854Z,8.30
2019-02-25T19:52:16.928Z,8.40
2019-02-25T19:54:48.160Z,8.30
2019-02-25T19:57:18.712Z,8.30
2019-02-25T19:59:50.708Z,8.20
2019-02-25T20:02:19.713Z,8.20
2019-02-25T20:04:51.441Z,8.00
2019-02-25T20:07:25.587Z,7.90
2019-02-25T20:09:51.500Z,7.90
2019-02-25T20:12:21.012Z,7.90
2019-02-25T20:14:50.866Z,7.90
2019-02-25T20:17:21.608Z,7.90
2019-02-25T20:19:51.691Z,7.80
2019-02-25T20:22:21.009Z,7.80
2019-02-25T20:24:51.143Z,7.70
2019-02-25T20:27:21.503Z,7.60
2019-02-25T20:29:51.124Z,7.60
2019-02-25T20:32:20.921Z,7.50
2019-02-25T20:34:52.281Z,7.50
2019-02-25T20:37:23.001Z,7.40
2019-02-25T20:39:52.750Z,7.40
2019-02-25T20:42:23.908Z,7.50
2019-02-25T20:44:55.089Z,7.40
2019-02-25T20:47:24.361Z,7.30
2019-02-25T20:49:55.684Z,7.20
2019-02-25T20:52:24.709Z,7.20
2019-02-25T20:54:54.073Z,7.10
2019-02-25T20:57:23.533Z,7.10
2019-02-25T20:59:53.251Z,7.00
2019-02-25T21:02:25.314Z,6.90
2019-02-25T21:04:54.894Z,6.90
2019-02-25T21:07:25.125Z,6.80
2019-02-25T21:09:56.882Z,6.80
2019-02-25T21:12:26.751Z,6.80
2019-02-25T21:14:56.105Z,6.70
2019-02-25T21:17:25.452Z,6.70
2019-02-25T21:19:56.109Z,6.60
2019-02-25T21:22:27.427Z,6.70
2019-02-25T21:24:58.071Z,6.70
2019-02-25T21:27:30.193Z,6.60
2019-02-25T21:29:59.468Z,6.50
2019-02-25T21:32:29.958Z,6.50
2019-02-25T21:34:59.687Z,6.40
2019-02-25T21:37:30.652Z,6.40
2019-02-25T21:40:02.482Z,6.40
2019-02-25T21:42:31.318Z,6.40
2019-02-25T21:45:02.353Z,6.30
2019-02-25T21:47:33.328Z,6.30
2019-02-25T21:50:04.053Z,6.20
2019-02-25T21:52:35.241Z,6.20
2019-02-25T21:55:07.086Z,6.20
2019-02-25T21:57:37.594Z,6.20
2019-02-25T22:00:10.101Z,6.20
2019-02-25T22:02:41.472Z,6.10
2019-02-25T22:05:13.693Z,6.10
2019-02-25T22:07:42.964Z,6.00
2019-02-25T22:10:13.108Z,5.90
2019-02-25T22:12:44.261Z,5.90
2019-02-25T22:15:15.876Z,5.80
2019-02-25T22:17:46.201Z,5.80
2019-02-25T22:20:18.456Z,5.80
2019-02-25T22:22:51.943Z,5.80
2019-02-25T22:25:18.407Z,5.80
2019-02-25T22:27:47.755Z,5.60
2019-02-25T22:30:17.207Z,5.60
2019-02-25T22:32:46.578Z,5.60
2019-02-25T22:35:15.821Z,5.70
2019-02-25T22:37:49.341Z,5.60
2019-02-25T22:40:17.428Z,5.60
2019-02-25T22:42:49.841Z,5.50
2019-02-25T22:45:18.777Z,5.40
2019-02-25T22:47:48.414Z,5.30
2019-02-25T22:50:17.739Z,5.30
2019-02-25T22:52:47.053Z,5.20
2019-02-25T22:55:18.367Z,5.30
2019-02-25T22:57:50.941Z,5.30
2019-02-25T23:00:36.383Z,5.20
2019-02-25T23:03:05.686Z,5.30
2019-02-25T23:05:34.992Z,5.20
2019-02-25T23:08:04.316Z,5.20
2019-02-25T23:10:33.614Z,5.20
2019-02-25T23:13:02.969Z,5.20
2019-02-25T23:15:32.277Z,5.20
2019-02-25T23:18:05.357Z,5.20
2019-02-25T23:20:34.017Z,5.20
2019-02-25T23:23:06.295Z,5.20
2019-02-25T23:25:34.597Z,5.10
2019-02-25T23:28:03.925Z,5.10
2019-02-25T23:30:33.172Z,5.00
2019-02-25T23:33:02.528Z,5.00
2019-02-25T23:35:31.953Z,4.90
2019-02-25T23:38:01.423Z,4.90
2019-02-25T23:40:33.289Z,4.80
2019-02-25T23:43:03.394Z,4.80
2019-02-25T23:45:32.772Z,4.80
2019-02-25T23:48:03.999Z,4.80
2019-02-25T23:50:34.019Z,4.80
2019-02-25T23:53:04.162Z,4.70
2019-02-25T23:55:33.581Z,4.70
2019-02-25T23:58:02.868Z,4.70
